x

Sentry Shoal (46131) Wave Buoy

5:00 - Fri 28th Jul 2017 All times are PDT. -7 hours from GMT.

  • Sig Wave height 0.7ft
  • Peak Period 2s
  • Wind
    9mph, 11mph gusts
  • Sea Temp 64°f
  • Luft Temp 60°f
  • Sea Pressure 1019.2mb
  • Sentry Shoal
  • Sentry Shoal

More Historic Weather Station data

Upgrade to MSW Pro to gain access to the past 30 days of data for over 8000 Wavebouys and Weather Stations around the globe.

Join Pro

Comparision Forecast

View Surf forecast
   
Fr 07/28 5:00 0.7ft 2s 9 11 mph 1019.2mb 64f 60f
4:00 0.7ft 3s 11 11 mph 1018.9mb 64f 60f
3:00 0.7ft 3s 7 9 mph 1019mb 63f 61f
2:00 1ft 3s 9 11 mph 1018.9mb 62f 61f
1:00 1ft 3s 13 16 mph 1018.8mb 63f 62f
12:00 1ft 2s 13 18 mph 1018.6mb 63f 63f
Do 07/27 11:00 0.3ft 3s 11 16 mph 1018.4mb 64f 64f
10:00 0.3ft 3s  -  4 mph 1018.5mb 65f 64f
9:00 0.3ft 3s 2 2 mph 1018mb 65f 64f
8:00 0.3ft 2s 4 4 mph 1017.9mb 65f 66f
7:00 0.3ft 2s 4 7 mph 1018.1mb 66f 66f
6:00 0.3ft 2s 7 7 mph 1018.5mb 66f 66f
5:00 0.3ft 2s 4 4 mph 1019.1mb 64f 67f
4:00 0.3ft 3s  -  mph 1019.5mb 64f 70f
3:00 0.3ft 3s 2 2 mph 1020mb 65f 67f
2:00 0.3ft 2s 2 2 mph 1020.1mb 64f 66f
1:00 0.3ft 2s 2 4 mph 1019.9mb 62f 66f
12:00 0.3ft 6s  -  2 mph 1019.8mb 63f 64f
11:00 0.7ft 5s 2 4 mph 1019.6mb 62f 62f
10:00 0.7ft 2s 9 9 mph 1019.4mb 62f 62f
9:00 1ft 3s 9 11 mph 1019.2mb 62f 61f
8:00 0.7ft 3s 9 13 mph 1018.7mb 62f 60f
7:00 1ft 3s 11 13 mph 1018.4mb 62f 60f
6:00 1ft 3s 11 13 mph 1018mb 62f 60f
5:00 1ft 3s 11 13 mph 1017.5mb 62f 60f
4:00 1.3ft 3s 11 13 mph 1017mb 62f 60f
3:00 1.3ft 3s 18 20 mph 1017mb 62f 61f
2:00 1.3ft 2s 13 16 mph 1016.9mb 62f 61f
1:00 1.3ft 2s 13 18 mph 1016.8mb 62f 62f
Mi 07/26 11:00 1ft 2s 16 18 mph 1016mb 64f 64f
10:00 0.3ft 2s 16 18 mph 1015.6mb 64f 66f
9:00 0.3ft 3s 7 9 mph 1015.4mb 68f 67f
8:00 0.3ft 2s  -  2 mph 1015.4mb 67f 69f
7:00 0.3ft 2s 2 4 mph 1015.5mb 67f 68f
6:00 0.3ft 2s 4 4 mph 1015.9mb 68f 69f
5:00 0.3ft 2s 2 2 mph 1016.5mb 67f 69f
4:00 0.3ft 4s 4 4 mph 1017.1mb 67f 68f
2:00 0.3ft 4s  -  2 mph 1017.7mb 65f 67f
1:00 0.3ft 4s  -  2 mph 1017.9mb 65f 65f
12:00 0.3ft 2s 2 2 mph 1017.8mb 64f 64f
11:00 0.3ft 2s 4 4 mph 1017.7mb 63f 62f
10:00 0.3ft 2s 2 4 mph 1017.4mb 63f 62f
9:00 0.3ft 2s 4 4 mph 1017.3mb 63f 62f
8:00 0.3ft 2s 4 7 mph 1017.2mb 63f 61f
7:00 0.7ft 2s 9 11 mph 1016.9mb 63f 61f
6:00 0.7ft 2s 11 13 mph 1016.4mb 62f 61f
5:00 0.7ft 2s 11 16 mph 1016.3mb 60f 62f
4:00 0.7ft 2s 11 13 mph 1016.1mb 61f 62f
3:00 0.7ft 2s 11 13 mph 1016.1mb 61f 63f
2:00 0.7ft 2s 11 13 mph 1016mb 61f 64f
1:00 0.7ft 2s 11 11 mph 1016mb 62f 64f
12:00 0.7ft 2s 13 13 mph 1015.6mb 62f 66f
Di 07/25 11:00 0.7ft 3s 13 16 mph 1015.6mb 61f 67f
10:00 0.7ft 2s 13 13 mph 1015.2mb 62f 67f
9:00 0.3ft 2s 13 13 mph 1014.9mb 66f 68f
8:00 0.3ft 2s 9 9 mph 1014.8mb 66f 70f
7:00 0.3ft 2s 4 4 mph 1014.9mb 67f 71f
6:00 0.3ft 2s 7 7 mph 1015.3mb 66f 71f
5:00 0.3ft 2s 7 7 mph 1015.9mb 66f 69f
4:00 0.3ft 3s 4 7 mph 1016.4mb 65f 69f
3:00 0.3ft 2s 4 4 mph 1017mb 67f 68f
2:00 0.3ft 3s 4 4 mph 1017.4mb 62f 66f
1:00 0.3ft 2s 7 7 mph 1017.8mb 62f 64f
12:00 0.3ft 2s 7 7 mph 1018.1mb 61f 63f
11:00 0.7ft 2s 9 9 mph 1018.3mb 61f 61f
10:00 0.7ft 2s 9 11 mph 1018.3mb 60f 60f
9:00 0.7ft 3s 9 11 mph 1018.2mb 60f 59f
8:00 1.3ft 3s 11 13 mph 1018mb 59f 58f
7:00 1.3ft 3s 16 18 mph 1017.5mb 59f 58f
6:00 1.6ft 3s 18 20 mph 1017.1mb 59f 58f
5:00 1.6ft 3s 18 20 mph 1016.8mb 59f 59f
4:00 1.6ft 3s 18 20 mph 1016.6mb 59f 59f
3:00 1.6ft 3s 16 20 mph 1016.7mb 60f 60f
2:00 2ft 3s 18 20 mph 1016.3mb 61f 61f
1:00 1.6ft 4s 20 22 mph 1016.2mb 61f 62f
12:00 1.6ft 3s 18 22 mph 1015.9mb 61f 63f
Mo 07/24 11:00 1.6ft 3s 20 22 mph 1015.6mb 63f 64f
10:00 1.6ft 3s 18 20 mph 1015.3mb 64f 65f
9:00 1.3ft 3s 18 22 mph 1014.8mb 64f 67f
8:00 1.3ft 3s 18 22 mph 1014.8mb 65f 68f
7:00 1ft 3s 16 18 mph 1014.8mb 65f 69f
6:00 0.7ft 2s 11 13 mph 1015.2mb 65f 69f
5:00 0.3ft 2s 11 11 mph 1015.6mb 65f 68f
4:00 0.7ft 2s 7 9 mph 1016.4mb 64f 67f
3:00 0.7ft 2s 7 7 mph 1017.2mb 63f 65f
2:00 1ft 3s 9 11 mph 1017.8mb 63f 65f